Terminal Aerodrome Forecast
Issued by NWS Sioux Falls, SD

Home | Current Version | Previous Version | Text Only | Print | Product List | Glossary Off
Versions: 1 2 3 4 5 6 7 8 9 10 11 12 13 14 15

000
FTUS43 KFSD 022330
TAFHON
TAF
KHON 022330Z 0300/0324 16012G18KT P6SM OVC060
     FM030600 16012KT 3SM -SN OVC030
     FM030800 16005KT 1SM -SN OVC015
     FM031300 35022G34KT 3/4SM -SN BLSN OVC009
     FM031500 35030G40KT 1/2SM -SN BLSN OVC015
     FM031800 34028G38KT 4SM BLSN BKN030=

USA.gov is the U.S. government's official web portal to all federal, state and local government web resources and services.